createdAt,value
2017-12-12T00:00:43.623Z,981.89
2017-12-12T00:02:37.481Z,982.06
2017-12-12T00:03:37.493Z,982.11
2017-12-12T00:05:30.956Z,982.21
2017-12-12T00:06:31.440Z,982.25
2017-12-12T00:08:25.389Z,982.27
2017-12-12T00:09:25.875Z,982.32
2017-12-12T00:11:18.793Z,982.34
2017-12-12T00:12:19.319Z,982.44
2017-12-12T00:14:12.206Z,982.54
2017-12-12T00:15:12.212Z,982.53
2017-12-12T00:17:05.633Z,982.58
2017-12-12T00:18:05.634Z,982.60
2017-12-12T00:19:59.109Z,982.69
2017-12-12T00:21:00.569Z,982.75
2017-12-12T00:22:52.486Z,982.90
2017-12-12T00:23:52.458Z,982.98
2017-12-12T00:25:45.920Z,983.06
2017-12-12T00:26:45.880Z,983.02
2017-12-12T00:28:39.342Z,983.17
2017-12-12T00:29:39.318Z,983.15
2017-12-12T00:31:32.785Z,983.26
2017-12-12T00:32:32.740Z,983.31
2017-12-12T00:34:27.197Z,983.30
2017-12-12T00:35:27.680Z,983.34
2017-12-12T00:37:20.613Z,983.47
2017-12-12T00:38:20.614Z,983.49
2017-12-12T00:40:14.039Z,983.51
2017-12-12T00:41:14.037Z,983.57
2017-12-12T00:43:07.517Z,983.58
2017-12-12T00:44:07.434Z,983.70
2017-12-12T00:46:00.868Z,983.74
2017-12-12T00:47:00.871Z,983.80
2017-12-12T00:48:54.800Z,983.86
2017-12-12T00:49:54.289Z,983.86
2017-12-12T00:51:47.689Z,983.90
2017-12-12T00:52:47.689Z,983.94
2017-12-12T00:54:42.139Z,984.04
2017-12-12T00:55:42.125Z,984.13
2017-12-12T00:57:35.543Z,984.22
2017-12-12T00:58:35.546Z,984.18
2017-12-12T01:00:28.974Z,984.27
2017-12-12T01:01:28.966Z,984.36
2017-12-12T01:03:22.356Z,984.40
2017-12-12T01:04:22.927Z,984.47
2017-12-12T01:06:15.814Z,984.60
2017-12-12T01:07:15.768Z,984.64
2017-12-12T01:09:09.184Z,984.70
2017-12-12T01:10:09.714Z,984.71
2017-12-12T01:12:02.636Z,984.75
2017-12-12T01:13:02.614Z,984.83
2017-12-12T01:14:57.019Z,984.91
2017-12-12T01:15:57.035Z,984.93
2017-12-12T01:17:50.468Z,985.00
2017-12-12T01:18:50.977Z,985.02
2017-12-12T01:20:44.909Z,985.06
2017-12-12T01:21:43.901Z,985.20
2017-12-12T01:23:37.314Z,985.19
2017-12-12T01:24:37.306Z,985.29
2017-12-12T01:26:31.742Z,985.37
2017-12-12T01:27:31.732Z,985.43
2017-12-12T01:29:25.205Z,985.58
2017-12-12T01:30:25.148Z,985.62
2017-12-12T01:32:19.621Z,985.68
2017-12-12T01:33:19.596Z,985.73
2017-12-12T01:35:13.059Z,985.82
2017-12-12T01:36:13.552Z,985.86
2017-12-12T01:38:07.447Z,985.95
2017-12-12T01:39:07.965Z,985.98
2017-12-12T01:41:02.378Z,986.05
2017-12-12T01:42:01.853Z,986.09
2017-12-12T01:43:56.308Z,986.14
2017-12-12T01:44:55.680Z,986.12
2017-12-12T01:46:49.101Z,986.15
2017-12-12T01:47:49.081Z,986.16
2017-12-12T01:49:43.019Z,986.26
2017-12-12T01:50:42.495Z,986.22
2017-12-12T01:52:35.970Z,986.31
2017-12-12T01:53:35.892Z,986.34
2017-12-12T01:55:30.829Z,986.46
2017-12-12T01:56:30.324Z,986.44
2017-12-12T01:58:23.751Z,986.56
2017-12-12T01:59:23.734Z,986.53
2017-12-12T02:01:17.145Z,986.73
2017-12-12T02:02:17.147Z,986.72
2017-12-12T02:04:11.183Z,986.81
2017-12-12T02:05:11.094Z,986.83
2017-12-12T02:07:05.003Z,986.98
2017-12-12T02:08:03.985Z,987.01
2017-12-12T02:09:57.912Z,987.10
2017-12-12T02:10:57.922Z,987.11
2017-12-12T02:12:52.270Z,987.26
2017-12-12T02:13:50.780Z,987.36
2017-12-12T02:15:44.244Z,987.44
2017-12-12T02:16:44.211Z,987.44
2017-12-12T02:18:37.616Z,987.52
2017-12-12T02:19:38.147Z,987.60
2017-12-12T02:21:31.557Z,987.56
2017-12-12T02:22:31.032Z,987.61
2017-12-12T02:24:25.404Z,987.69
2017-12-12T02:25:24.496Z,987.76
2017-12-12T02:27:18.915Z,987.86
2017-12-12T02:28:18.913Z,987.89
2017-12-12T02:30:13.364Z,987.95
2017-12-12T02:31:13.282Z,988.10
2017-12-12T02:33:06.505Z,988.12
2017-12-12T02:34:05.950Z,988.19
2017-12-12T02:36:00.892Z,988.23
2017-12-12T02:36:59.898Z,988.35
2017-12-12T02:38:53.790Z,988.43
2017-12-12T02:39:53.804Z,988.45
2017-12-12T02:41:48.240Z,988.51
2017-12-12T02:42:47.246Z,988.56
2017-12-12T02:44:41.654Z,988.51
2017-12-12T02:45:41.636Z,988.68
2017-12-12T02:47:35.587Z,988.70
2017-12-12T02:48:35.070Z,988.75
2017-12-12T02:50:28.502Z,988.85
2017-12-12T02:51:28.483Z,988.89
2017-12-12T02:53:21.890Z,988.97
2017-12-12T02:54:21.895Z,988.93
2017-12-12T02:56:15.304Z,988.98
2017-12-12T02:57:15.316Z,988.99
2017-12-12T02:59:08.771Z,989.07
2017-12-12T03:00:08.730Z,989.14
2017-12-12T03:02:02.139Z,989.20
2017-12-12T03:03:02.132Z,989.27
2017-12-12T03:04:56.591Z,989.42
2017-12-12T03:05:55.708Z,989.41
2017-12-12T03:07:49.177Z,989.49
2017-12-12T03:08:49.133Z,989.52
2017-12-12T03:10:42.551Z,989.52
2017-12-12T03:11:42.658Z,989.56
2017-12-12T03:13:35.991Z,989.71
2017-12-12T03:14:35.979Z,989.71
2017-12-12T03:16:29.401Z,989.75
2017-12-12T03:17:29.922Z,989.77
2017-12-12T03:19:23.852Z,989.84
2017-12-12T03:20:22.828Z,989.90
2017-12-12T03:22:16.788Z,989.99
2017-12-12T03:23:16.294Z,990.07
2017-12-12T03:25:10.720Z,990.09
2017-12-12T03:26:10.702Z,990.17
2017-12-12T03:28:04.165Z,990.25
2017-12-12T03:29:04.120Z,990.27
2017-12-12T03:30:58.090Z,990.37
2017-12-12T03:31:58.067Z,990.38
2017-12-12T03:33:51.013Z,990.49
2017-12-12T03:34:50.960Z,990.53
2017-12-12T03:36:44.419Z,990.58
2017-12-12T03:37:44.370Z,990.65
2017-12-12T03:39:38.333Z,990.73
2017-12-12T03:40:37.794Z,990.78
2017-12-12T03:42:31.746Z,990.88
2017-12-12T03:43:31.179Z,990.93
2017-12-12T03:45:24.595Z,990.97
2017-12-12T03:46:24.613Z,990.98
2017-12-12T03:48:18.054Z,991.06
2017-12-12T03:49:18.026Z,991.14
2017-12-12T03:51:11.465Z,991.22
2017-12-12T03:52:11.444Z,991.30
2017-12-12T03:54:05.877Z,991.39
2017-12-12T03:55:05.874Z,991.36
2017-12-12T03:56:59.303Z,991.42
2017-12-12T03:57:59.290Z,991.48
2017-12-12T03:59:52.733Z,991.53
2017-12-12T04:00:52.742Z,991.53
2017-12-12T04:02:46.693Z,991.57
2017-12-12T04:03:46.164Z,991.64
2017-12-12T04:05:42.634Z,991.70
2017-12-12T04:06:39.561Z,991.74
2017-12-12T04:08:32.979Z,991.84
2017-12-12T04:09:33.511Z,991.86
2017-12-12T04:11:26.969Z,991.89
2017-12-12T04:12:26.556Z,991.91
2017-12-12T04:14:20.009Z,991.93
2017-12-12T04:15:20.493Z,991.91
2017-12-12T04:17:14.403Z,992.12
2017-12-12T04:18:14.393Z,992.15
2017-12-12T04:20:10.347Z,992.22
2017-12-12T04:21:08.826Z,992.25
2017-12-12T04:23:02.772Z,992.30
2017-12-12T04:24:02.222Z,992.38
2017-12-12T04:25:55.624Z,992.43
2017-12-12T04:26:55.649Z,992.45
2017-12-12T04:28:49.064Z,992.51
2017-12-12T04:29:49.049Z,992.53
2017-12-12T04:31:42.455Z,992.64
2017-12-12T04:32:42.474Z,992.69
2017-12-12T04:34:36.285Z,992.82
2017-12-12T04:35:36.286Z,992.83
2017-12-12T04:37:29.686Z,992.91
2017-12-12T04:38:29.688Z,992.96
2017-12-12T04:40:24.640Z,993.01
2017-12-12T04:41:23.099Z,993.06
2017-12-12T04:43:16.565Z,993.12
2017-12-12T04:44:16.505Z,993.20
2017-12-12T04:46:09.954Z,993.29
2017-12-12T04:47:10.444Z,993.27
2017-12-12T04:49:03.335Z,993.40
2017-12-12T04:50:03.346Z,993.47
2017-12-12T04:51:56.759Z,993.45
2017-12-12T04:52:56.746Z,993.53
2017-12-12T04:54:50.742Z,993.55
2017-12-12T04:55:50.472Z,993.73
2017-12-12T04:57:43.935Z,993.75
2017-12-12T04:58:43.904Z,993.78
2017-12-12T05:00:38.320Z,993.88
2017-12-12T05:01:38.316Z,994.03
2017-12-12T05:03:32.282Z,994.11
2017-12-12T05:04:31.751Z,994.08
2017-12-12T05:06:25.200Z,994.15
2017-12-12T05:07:25.166Z,994.11
2017-12-12T05:09:19.577Z,994.24
2017-12-12T05:10:19.587Z,994.27
2017-12-12T05:12:13.030Z,994.27
2017-12-12T05:13:13.003Z,994.35
2017-12-12T05:15:06.400Z,994.35
2017-12-12T05:16:06.411Z,994.36
2017-12-12T05:17:59.829Z,994.44
2017-12-12T05:18:59.815Z,994.46
2017-12-12T05:20:53.265Z,994.51
2017-12-12T05:21:53.234Z,994.54
2017-12-12T05:23:47.186Z,994.60
2017-12-12T05:24:46.658Z,994.68
2017-12-12T05:26:40.607Z,994.69
2017-12-12T05:27:40.075Z,994.68
2017-12-12T05:29:34.535Z,994.78
2017-12-12T05:30:35.023Z,994.80
2017-12-12T05:32:28.460Z,994.84
2017-12-12T05:33:27.904Z,994.90
2017-12-12T05:35:21.856Z,994.99
2017-12-12T05:36:22.361Z,994.96
2017-12-12T05:38:14.951Z,995.11
2017-12-12T05:39:15.436Z,995.11
2017-12-12T05:41:08.382Z,995.08
2017-12-12T05:42:08.322Z,995.14
2017-12-12T05:44:01.794Z,995.28
2017-12-12T05:45:01.738Z,995.32
2017-12-12T05:46:56.153Z,995.37
2017-12-12T05:47:56.148Z,995.38
2017-12-12T05:49:49.587Z,995.47
2017-12-12T05:50:49.585Z,995.40
2017-12-12T05:52:43.024Z,995.45
2017-12-12T05:53:42.949Z,995.54
2017-12-12T05:55:36.406Z,995.59
2017-12-12T05:56:36.376Z,995.62
2017-12-12T05:58:30.820Z,995.73
2017-12-12T05:59:31.331Z,995.66
2017-12-12T06:01:24.283Z,995.77
2017-12-12T06:02:24.243Z,995.81
2017-12-12T06:04:17.676Z,995.88
2017-12-12T06:05:20.191Z,995.84
2017-12-12T06:07:11.623Z,995.84
2017-12-12T06:08:11.102Z,995.90
2017-12-12T06:10:05.532Z,995.83
2017-12-12T06:11:05.522Z,995.95
2017-12-12T06:12:58.977Z,996.04
2017-12-12T06:13:58.931Z,996.04
2017-12-12T06:15:53.381Z,996.12
2017-12-12T06:16:53.372Z,996.12
2017-12-12T06:18:46.830Z,996.17
2017-12-12T06:19:46.811Z,996.22
2017-12-12T06:21:40.747Z,996.38
2017-12-12T06:22:40.222Z,996.44
2017-12-12T06:24:35.172Z,996.52
2017-12-12T06:25:33.656Z,996.57
2017-12-12T06:27:28.116Z,996.65
2017-12-12T06:28:28.073Z,996.65
2017-12-12T06:30:21.538Z,996.75
2017-12-12T06:31:22.073Z,996.78
2017-12-12T06:33:15.944Z,996.72
2017-12-12T06:34:14.883Z,996.81
2017-12-12T06:36:08.327Z,996.86
2017-12-12T06:37:08.320Z,996.82
2017-12-12T06:39:01.775Z,996.92
2017-12-12T06:40:01.763Z,996.91
2017-12-12T06:41:55.713Z,997.05
2017-12-12T06:42:55.204Z,996.94
2017-12-12T06:44:49.644Z,996.99
2017-12-12T06:45:49.636Z,997.08
2017-12-12T06:47:44.073Z,997.13
2017-12-12T06:48:44.071Z,997.15
2017-12-12T06:50:37.529Z,997.14
2017-12-12T06:51:38.009Z,997.30
2017-12-12T06:53:33.372Z,997.25
2017-12-12T06:54:35.623Z,997.18
2017-12-12T06:56:26.836Z,997.24
2017-12-12T06:57:27.308Z,997.27
2017-12-12T06:59:20.265Z,997.31
2017-12-12T07:00:20.720Z,997.37
2017-12-12T07:02:13.659Z,997.35
2017-12-12T07:03:13.661Z,997.37
2017-12-12T07:05:07.071Z,997.48
2017-12-12T07:06:07.043Z,997.50
2017-12-12T07:08:01.465Z,997.53
2017-12-12T07:09:01.469Z,997.59
2017-12-12T07:10:55.435Z,997.87
2017-12-12T07:11:55.424Z,997.84
2017-12-12T07:13:49.329Z,997.86
2017-12-12T07:14:50.789Z,997.95
2017-12-12T07:16:43.259Z,998.02
2017-12-12T07:17:42.735Z,998.09
2017-12-12T07:19:36.195Z,998.07
2017-12-12T07:20:36.150Z,998.10
2017-12-12T07:22:29.624Z,998.12
2017-12-12T07:23:29.559Z,998.15
2017-12-12T07:25:22.970Z,998.25
2017-12-12T07:26:22.955Z,998.32
2017-12-12T07:28:16.385Z,998.29
2017-12-12T07:29:16.392Z,998.33
2017-12-12T07:31:09.843Z,998.37
2017-12-12T07:32:09.828Z,998.50
2017-12-12T07:34:03.292Z,998.55
2017-12-12T07:35:03.793Z,998.58
2017-12-12T07:36:56.741Z,998.59
2017-12-12T07:37:56.694Z,998.56
2017-12-12T07:39:52.143Z,998.69
2017-12-12T07:40:51.633Z,998.64
2017-12-12T07:42:45.092Z,998.76
2017-12-12T07:43:44.540Z,998.75
2017-12-12T07:45:38.972Z,998.87
2017-12-12T07:46:38.972Z,998.89
2017-12-12T07:48:32.403Z,998.99
2017-12-12T07:49:32.420Z,998.99
2017-12-12T07:51:27.347Z,999.00
2017-12-12T07:52:27.358Z,999.01
2017-12-12T07:54:20.770Z,999.00
2017-12-12T07:55:20.263Z,999.01
2017-12-12T07:57:13.687Z,999.02
2017-12-12T07:58:13.692Z,998.94
2017-12-12T08:00:08.617Z,999.02
2017-12-12T08:01:08.617Z,999.05
2017-12-12T08:03:03.559Z,999.17
2017-12-12T08:04:02.538Z,999.06
2017-12-12T08:05:56.941Z,999.21
2017-12-12T08:06:56.944Z,999.22
2017-12-12T08:08:50.425Z,999.26
2017-12-12T08:09:50.901Z,999.32
2017-12-12T08:11:43.807Z,999.37
2017-12-12T08:12:43.823Z,999.37
2017-12-12T08:14:37.247Z,999.40
2017-12-12T08:15:37.238Z,999.38
2017-12-12T08:17:32.180Z,999.40
2017-12-12T08:18:31.662Z,999.52
2017-12-12T08:20:26.125Z,999.53
2017-12-12T08:21:26.088Z,999.62
2017-12-12T08:23:19.542Z,999.70
2017-12-12T08:24:19.498Z,999.80
2017-12-12T08:26:12.919Z,999.85
2017-12-12T08:27:12.926Z,999.78
2017-12-12T08:29:07.870Z,999.95
2017-12-12T08:30:07.350Z,999.96
2017-12-12T08:32:00.802Z,1000.03
2017-12-12T08:33:00.758Z,1000.03
2017-12-12T08:34:54.711Z,1000.09
2017-12-12T08:35:54.181Z,1000.12
2017-12-12T08:37:48.610Z,1000.11
2017-12-12T08:38:49.133Z,1000.15
2017-12-12T08:40:42.067Z,1000.18
2017-12-12T08:41:42.038Z,1000.15
2017-12-12T08:43:36.469Z,1000.22
2017-12-12T08:44:36.472Z,1000.21
2017-12-12T08:46:30.905Z,1000.32
2017-12-12T08:47:30.898Z,1000.37
2017-12-12T08:49:24.844Z,1000.42
2017-12-12T08:50:24.847Z,1000.44
2017-12-12T08:52:17.745Z,1000.53
2017-12-12T08:53:17.759Z,1000.54
2017-12-12T08:55:12.703Z,1000.57
2017-12-12T08:56:11.174Z,1000.61
2017-12-12T08:58:05.595Z,1000.65
2017-12-12T08:59:05.587Z,1000.64
2017-12-12T09:00:59.032Z,1000.66
2017-12-12T09:01:59.015Z,1000.75
2017-12-12T09:03:52.552Z,1000.78
2017-12-12T09:04:52.440Z,1000.83
2017-12-12T09:06:48.381Z,1000.88
2017-12-12T09:07:46.864Z,1000.89
2017-12-12T09:09:41.333Z,1000.91
2017-12-12T09:10:41.303Z,1000.91
2017-12-12T09:12:34.709Z,1000.94
2017-12-12T09:13:34.687Z,1000.96
2017-12-12T09:15:28.130Z,1001.01
2017-12-12T09:16:28.120Z,1001.09
2017-12-12T09:18:21.530Z,1001.11
2017-12-12T09:19:22.058Z,1001.15
2017-12-12T09:21:14.989Z,1001.21
2017-12-12T09:22:14.949Z,1001.26
2017-12-12T09:24:08.408Z,1001.34
2017-12-12T09:25:08.910Z,1001.38
2017-12-12T09:27:02.343Z,1001.38
2017-12-12T09:28:01.798Z,1001.43
2017-12-12T09:29:55.743Z,1001.38
2017-12-12T09:30:55.751Z,1001.39
2017-12-12T09:32:48.605Z,1001.54
2017-12-12T09:33:48.605Z,1001.55
2017-12-12T09:35:42.014Z,1001.71
2017-12-12T09:36:42.019Z,1001.69
2017-12-12T09:38:35.478Z,1001.76
2017-12-12T09:39:35.433Z,1001.75
2017-12-12T09:41:29.855Z,1001.87
2017-12-12T09:42:29.884Z,1001.92
2017-12-12T09:44:23.351Z,1001.86
2017-12-12T09:45:23.811Z,1001.93
2017-12-12T09:47:16.712Z,1001.93
2017-12-12T09:48:16.701Z,1001.93
2017-12-12T09:50:11.181Z,1001.96
2017-12-12T09:51:11.663Z,1001.92
2017-12-12T09:53:05.101Z,1001.95
2017-12-12T09:54:04.557Z,1002.06
2017-12-12T09:55:58.979Z,1002.10
2017-12-12T09:56:57.959Z,1002.18
2017-12-12T09:58:51.906Z,1002.17
2017-12-12T09:59:51.389Z,1002.16
2017-12-12T10:01:44.818Z,1002.21
2017-12-12T10:02:44.817Z,1002.20
2017-12-12T10:04:38.273Z,1002.23
2017-12-12T10:05:38.255Z,1002.20
2017-12-12T10:07:31.675Z,1002.25
2017-12-12T10:08:32.206Z,1002.25
2017-12-12T10:10:25.121Z,1002.26
2017-12-12T10:11:25.122Z,1002.32
2017-12-12T10:13:18.528Z,1002.36
2017-12-12T10:14:18.494Z,1002.39
2017-12-12T10:16:13.455Z,1002.34
2017-12-12T10:17:12.937Z,1002.36
2017-12-12T10:19:06.383Z,1002.39
2017-12-12T10:20:06.345Z,1002.44
2017-12-12T10:21:59.809Z,1002.50
2017-12-12T10:22:59.772Z,1002.48
2017-12-12T10:24:54.723Z,1002.49
2017-12-12T10:25:53.783Z,1002.47
2017-12-12T10:27:46.668Z,1002.53
2017-12-12T10:28:46.619Z,1002.54
2017-12-12T10:30:41.590Z,1002.59
2017-12-12T10:31:42.007Z,1002.57
2017-12-12T10:33:34.502Z,1002.65
2017-12-12T10:34:34.493Z,1002.62
2017-12-12T10:36:28.961Z,1002.55
2017-12-12T10:37:28.436Z,1002.47
2017-12-12T10:39:21.407Z,1002.55
2017-12-12T10:40:21.350Z,1002.58
2017-12-12T10:42:14.820Z,1002.52
2017-12-12T10:43:14.804Z,1002.56
2017-12-12T10:45:08.230Z,1002.59
2017-12-12T10:46:08.238Z,1002.62
2017-12-12T10:48:01.708Z,1002.62
2017-12-12T10:49:01.664Z,1002.67
2017-12-12T10:50:56.095Z,1002.71
2017-12-12T10:51:56.090Z,1002.76
2017-12-12T10:53:49.506Z,1002.73
2017-12-12T10:54:49.510Z,1002.75
2017-12-12T10:56:43.940Z,1002.77
2017-12-12T10:57:44.457Z,1002.80
2017-12-12T10:59:37.396Z,1002.81
2017-12-12T11:00:37.371Z,1002.86
2017-12-12T11:02:30.763Z,1002.90
2017-12-12T11:03:30.767Z,1002.91
2017-12-12T11:05:26.282Z,1002.88
2017-12-12T11:06:25.737Z,1002.90
2017-12-12T11:08:17.667Z,1002.89
2017-12-12T11:09:17.662Z,1002.90
2017-12-12T11:11:11.092Z,1002.97
2017-12-12T11:12:11.600Z,1002.98
2017-12-12T11:14:04.492Z,1002.95
2017-12-12T11:15:04.517Z,1003.01
2017-12-12T11:16:58.000Z,1003.01
2017-12-12T11:17:57.963Z,1003.01
2017-12-12T11:19:52.366Z,1002.98
2017-12-12T11:20:52.372Z,1002.98
2017-12-12T11:22:47.325Z,1003.06
2017-12-12T11:23:46.791Z,1003.12
2017-12-12T11:25:40.210Z,1003.09
2017-12-12T11:26:40.222Z,1003.16
2017-12-12T11:28:35.593Z,1003.22
2017-12-12T11:29:34.709Z,1003.21
2017-12-12T11:31:28.125Z,1003.20
2017-12-12T11:32:28.088Z,1003.20
2017-12-12T11:34:21.569Z,1003.24
2017-12-12T11:35:21.533Z,1003.20
2017-12-12T11:37:14.978Z,1003.32
2017-12-12T11:38:14.948Z,1003.38
2017-12-12T11:40:08.398Z,1003.38
2017-12-12T11:41:08.374Z,1003.39
2017-12-12T11:43:04.341Z,1003.47
2017-12-12T11:44:02.758Z,1003.43
2017-12-12T11:45:58.212Z,1003.44
2017-12-12T11:46:57.214Z,1003.47
2017-12-12T11:48:51.707Z,1003.46
2017-12-12T11:49:51.701Z,1003.44
2017-12-12T11:51:48.171Z,1003.46
2017-12-12T11:52:47.659Z,1003.47
2017-12-12T11:54:42.110Z,1003.51
2017-12-12T11:55:42.079Z,1003.51
2017-12-12T11:57:36.545Z,1003.62
2017-12-12T11:58:36.524Z,1003.63
2017-12-12T12:00:31.498Z,1003.60
2017-12-12T12:01:29.954Z,1003.64
2017-12-12T12:03:23.382Z,1003.62
2017-12-12T12:04:23.901Z,1003.62
2017-12-12T12:06:16.803Z,1003.65
2017-12-12T12:07:16.810Z,1003.82
2017-12-12T12:09:10.263Z,1003.79
2017-12-12T12:10:10.239Z,1003.83
2017-12-12T12:12:03.673Z,1003.84
2017-12-12T12:13:03.674Z,1003.91
2017-12-12T12:14:58.084Z,1003.89
2017-12-12T12:15:58.599Z,1003.84
2017-12-12T12:17:51.530Z,1003.84
2017-12-12T12:18:51.516Z,1003.89
2017-12-12T12:20:44.980Z,1003.92
2017-12-12T12:21:44.937Z,1003.92
2017-12-12T12:23:38.907Z,1003.94
2017-12-12T12:24:38.362Z,1003.90
2017-12-12T12:26:31.818Z,1003.98
2017-12-12T12:27:31.808Z,1003.97
2017-12-12T12:29:25.223Z,1003.92
2017-12-12T12:30:25.228Z,1003.90
2017-12-12T12:32:19.182Z,1003.89
2017-12-12T12:33:18.681Z,1003.90
2017-12-12T12:35:13.628Z,1003.87
2017-12-12T12:36:13.098Z,1003.89
2017-12-12T12:38:08.053Z,1003.94
2017-12-12T12:39:07.523Z,1003.94
2017-12-12T12:41:01.494Z,1003.94
2017-12-12T12:42:00.943Z,1003.95
2017-12-12T12:43:55.904Z,1003.97
2017-12-12T12:44:55.368Z,1003.99
2017-12-12T12:46:48.838Z,1004.07
2017-12-12T12:47:48.800Z,1004.00
2017-12-12T12:49:42.244Z,1004.12
2017-12-12T12:50:42.769Z,1004.12
2017-12-12T12:52:36.674Z,1004.15
2017-12-12T12:53:36.653Z,1004.15
2017-12-12T12:55:31.097Z,1004.18
2017-12-12T12:56:31.195Z,1004.18
2017-12-12T12:58:24.565Z,1004.18
2017-12-12T12:59:24.542Z,1004.25
2017-12-12T13:01:20.489Z,1004.26
2017-12-12T13:02:17.977Z,1004.25
2017-12-12T13:04:12.917Z,1004.33
2017-12-12T13:05:12.924Z,1004.30
2017-12-12T13:07:06.847Z,1004.42
2017-12-12T13:08:07.336Z,1004.42
2017-12-12T13:10:01.780Z,1004.39
2017-12-12T13:11:00.254Z,1004.40
2017-12-12T13:12:55.224Z,1004.48
2017-12-12T13:13:55.222Z,1004.50
2017-12-12T13:15:48.088Z,1004.50
2017-12-12T13:16:48.600Z,1004.56
2017-12-12T13:18:41.508Z,1004.51
2017-12-12T13:19:41.495Z,1004.55
2017-12-12T13:21:34.928Z,1004.64
2017-12-12T13:22:34.930Z,1004.63
2017-12-12T13:24:28.896Z,1004.68
2017-12-12T13:25:28.361Z,1004.65
2017-12-12T13:27:21.796Z,1004.66
2017-12-12T13:28:21.795Z,1004.71
2017-12-12T13:30:15.212Z,1004.73
2017-12-12T13:31:15.744Z,1004.75
2017-12-12T13:33:09.633Z,1004.74
2017-12-12T13:34:09.611Z,1004.72
2017-12-12T13:36:03.052Z,1004.74
2017-12-12T13:37:03.045Z,1004.69
2017-12-12T13:38:56.485Z,1004.78
2017-12-12T13:39:56.464Z,1004.81
2017-12-12T13:41:49.881Z,1004.84
2017-12-12T13:42:49.911Z,1004.92
2017-12-12T13:44:43.366Z,1004.93
2017-12-12T13:45:43.332Z,1004.92
2017-12-12T13:47:37.768Z,1004.95
2017-12-12T13:48:37.758Z,1004.97
2017-12-12T13:50:31.170Z,1005.01
2017-12-12T13:51:31.185Z,1005.02
2017-12-12T13:53:25.857Z,1005.01
2017-12-12T13:54:25.138Z,1005.03
2017-12-12T13:56:18.567Z,1005.06
2017-12-12T13:57:18.033Z,1005.05
2017-12-12T13:59:12.976Z,1005.10
2017-12-12T14:00:11.988Z,1005.13
2017-12-12T14:02:06.403Z,1005.15
2017-12-12T14:03:05.911Z,1005.20
2017-12-12T14:05:00.381Z,1005.22
2017-12-12T14:05:59.427Z,1005.27
2017-12-12T14:07:53.823Z,1005.32
2017-12-12T14:08:53.837Z,1005.34
2017-12-12T14:10:47.792Z,1005.40
2017-12-12T14:11:47.269Z,1005.38
2017-12-12T14:13:40.683Z,1005.41
2017-12-12T14:14:40.691Z,1005.44
2017-12-12T14:16:34.154Z,1005.46
2017-12-12T14:17:34.643Z,1005.49
2017-12-12T14:19:28.518Z,1005.52
2017-12-12T14:20:27.567Z,1005.53
2017-12-12T14:22:22.035Z,1005.62
2017-12-12T14:23:21.016Z,1005.55
2017-12-12T14:25:15.959Z,1005.70
2017-12-12T14:26:14.964Z,1005.72
2017-12-12T14:28:08.891Z,1005.67
2017-12-12T14:29:08.383Z,1005.71
2017-12-12T14:31:01.823Z,1005.78
2017-12-12T14:32:01.284Z,1005.76
2017-12-12T14:33:54.742Z,1005.80
2017-12-12T14:34:54.717Z,1005.82
2017-12-12T14:36:51.668Z,1005.81
2017-12-12T14:37:48.662Z,1005.85
2017-12-12T14:39:43.093Z,1005.90
2017-12-12T14:40:42.576Z,1005.93
2017-12-12T14:42:37.033Z,1005.99
2017-12-12T14:43:35.978Z,1005.97
2017-12-12T14:45:30.436Z,1006.00
2017-12-12T14:46:30.422Z,1006.02
2017-12-12T14:48:23.856Z,1006.07
2017-12-12T14:49:23.833Z,1006.03
2017-12-12T14:51:18.294Z,1006.11
2017-12-12T14:52:20.285Z,1006.09
2017-12-12T14:54:11.762Z,1006.05
2017-12-12T14:55:11.712Z,1006.10
2017-12-12T14:57:07.183Z,1006.14
2017-12-12T14:58:05.133Z,1006.15
2017-12-12T14:59:59.606Z,1006.18
2017-12-12T15:00:59.572Z,1006.21
2017-12-12T15:02:54.524Z,1006.20
2017-12-12T15:03:52.971Z,1006.22
2017-12-12T15:05:47.444Z,1006.23
2017-12-12T15:06:47.456Z,1006.28
2017-12-12T15:08:42.409Z,1006.36
2017-12-12T15:09:41.900Z,1006.36
2017-12-12T15:11:35.836Z,1006.41
2017-12-12T15:12:35.831Z,1006.44
2017-12-12T15:14:29.778Z,1006.45
2017-12-12T15:15:29.749Z,1006.48
2017-12-12T15:17:23.692Z,1006.53
2017-12-12T15:18:24.118Z,1006.55
2017-12-12T15:20:17.637Z,1006.59
2017-12-12T15:21:16.603Z,1006.61
2017-12-12T15:23:11.065Z,1006.62
2017-12-12T15:24:11.016Z,1006.65
2017-12-12T15:26:04.942Z,1006.63
2017-12-12T15:27:04.414Z,1006.66
2017-12-12T15:28:58.847Z,1006.68
2017-12-12T15:29:58.831Z,1006.72
2017-12-12T15:31:53.286Z,1006.77
2017-12-12T15:32:52.256Z,1006.80
2017-12-12T15:34:46.709Z,1006.81
2017-12-12T15:35:47.204Z,1006.89
2017-12-12T15:37:41.110Z,1006.91
2017-12-12T15:38:41.126Z,1006.89
2017-12-12T15:40:35.056Z,1006.88
2017-12-12T15:41:35.051Z,1006.92
2017-12-12T15:43:29.496Z,1006.97
2017-12-12T15:44:28.958Z,1007.05
2017-12-12T15:46:23.392Z,1007.12
2017-12-12T15:47:23.379Z,1007.13
2017-12-12T15:49:16.836Z,1007.16
2017-12-12T15:50:16.801Z,1007.19
2017-12-12T15:52:10.235Z,1007.16
2017-12-12T15:53:10.254Z,1007.23
2017-12-12T15:55:03.698Z,1007.23
2017-12-12T15:56:03.654Z,1007.29
2017-12-12T15:57:57.101Z,1007.37
2017-12-12T15:58:57.604Z,1007.39
2017-12-12T16:00:50.495Z,1007.45
2017-12-12T16:01:51.018Z,1007.45
2017-12-12T16:03:43.961Z,1007.48
2017-12-12T16:04:43.928Z,1007.56
2017-12-12T16:06:37.360Z,1007.50
2017-12-12T16:07:37.363Z,1007.58
2017-12-12T16:09:30.823Z,1007.64
2017-12-12T16:10:30.767Z,1007.64
2017-12-12T16:12:24.234Z,1007.68
2017-12-12T16:13:24.178Z,1007.68
2017-12-12T16:15:18.139Z,1007.76
2017-12-12T16:16:17.604Z,1007.75
2017-12-12T16:18:11.049Z,1007.81
2017-12-12T16:19:11.056Z,1007.80
2017-12-12T16:21:05.486Z,1007.83
2017-12-12T16:22:05.481Z,1007.89
2017-12-12T16:23:58.964Z,1007.90
2017-12-12T16:24:59.432Z,1007.91
2017-12-12T16:26:52.367Z,1007.90
2017-12-12T16:27:52.441Z,1007.88
2017-12-12T16:29:46.287Z,1007.95
2017-12-12T16:30:45.752Z,1007.93
2017-12-12T16:32:40.159Z,1007.96
2017-12-12T16:33:40.150Z,1007.99
2017-12-12T16:35:35.113Z,1008.03
2017-12-12T16:36:34.593Z,1007.99
2017-12-12T16:38:28.040Z,1008.06
2017-12-12T16:39:28.524Z,1008.07
2017-12-12T16:41:22.462Z,1008.08
2017-12-12T16:42:21.949Z,1008.03
2017-12-12T16:44:15.843Z,1008.04
2017-12-12T16:45:16.371Z,1008.08
2017-12-12T16:47:09.297Z,1008.09
2017-12-12T16:48:10.217Z,1008.06
2017-12-12T16:50:02.732Z,1008.13
2017-12-12T16:51:03.218Z,1008.07
2017-12-12T16:52:57.646Z,1008.11
2017-12-12T16:53:57.651Z,1008.09
2017-12-12T16:55:51.478Z,1008.13
2017-12-12T16:56:51.501Z,1008.12
2017-12-12T16:58:44.952Z,1008.15
2017-12-12T16:59:44.916Z,1008.18
2017-12-12T17:01:38.344Z,1008.22
2017-12-12T17:02:38.341Z,1008.25
2017-12-12T17:04:31.801Z,1008.23
2017-12-12T17:05:32.285Z,1008.23
2017-12-12T17:07:25.712Z,1008.26
2017-12-12T17:08:25.198Z,1008.26
2017-12-12T17:10:18.642Z,1008.27
2017-12-12T17:11:19.152Z,1008.29
2017-12-12T17:13:12.581Z,1008.32
2017-12-12T17:14:12.042Z,1008.35
2017-12-12T17:16:05.871Z,1008.35
2017-12-12T17:17:06.797Z,1008.31
2017-12-12T17:19:00.836Z,1008.31
2017-12-12T17:20:00.336Z,1008.34
2017-12-12T17:21:53.791Z,1008.36
2017-12-12T17:22:54.321Z,1008.35
2017-12-12T17:24:48.270Z,1008.36
2017-12-12T17:25:48.215Z,1008.39
2017-12-12T17:27:41.672Z,1008.41
2017-12-12T17:28:43.186Z,1008.43
2017-12-12T17:30:35.086Z,1008.46
2017-12-12T17:31:35.072Z,1008.46
2017-12-12T17:33:30.022Z,1008.47
2017-12-12T17:34:29.519Z,1008.46
2017-12-12T17:36:22.972Z,1008.47
2017-12-12T17:37:23.941Z,1008.47
2017-12-12T17:39:17.420Z,1008.50
2017-12-12T17:40:17.933Z,1008.50
2017-12-12T17:42:10.856Z,1008.50
2017-12-12T17:43:12.344Z,1008.52
2017-12-12T17:45:05.772Z,1008.49
2017-12-12T17:46:05.256Z,1008.57